createdAt,value
2019-05-05T00:01:21.238Z,2.59
2019-05-05T00:03:47.295Z,2.57
2019-05-05T00:06:14.695Z,2.55
2019-05-05T00:08:40.877Z,2.71
2019-05-05T00:11:07.206Z,2.82
2019-05-05T00:13:34.660Z,2.87
2019-05-05T00:16:00.787Z,2.83
2019-05-05T00:18:27.138Z,2.86
2019-05-05T00:20:55.175Z,2.91
2019-05-05T00:23:21.415Z,2.91
2019-05-05T00:25:47.439Z,3.05
2019-05-05T00:28:14.331Z,3.00
2019-05-05T00:30:40.625Z,3.02
2019-05-05T00:33:06.619Z,3.03
2019-05-05T00:35:34.470Z,2.96
2019-05-05T00:38:00.677Z,2.86
2019-05-05T00:40:26.746Z,2.77
2019-05-05T00:42:54.606Z,2.68
2019-05-05T00:45:20.942Z,2.57
2019-05-05T00:47:46.964Z,2.46
2019-05-05T00:50:14.588Z,2.37
2019-05-05T00:52:40.623Z,2.31
2019-05-05T00:55:07.412Z,2.23
2019-05-05T00:57:34.779Z,2.25
2019-05-05T01:00:01.173Z,2.23
2019-05-05T01:02:27.304Z,2.18
2019-05-05T01:04:55.075Z,2.19
2019-05-05T01:07:21.379Z,2.27
2019-05-05T01:09:47.723Z,2.15
2019-05-05T01:12:14.977Z,2.04
2019-05-05T01:14:41.216Z,1.98
2019-05-05T01:17:07.324Z,1.92
2019-05-05T01:19:34.988Z,1.95
2019-05-05T01:22:01.421Z,2.00
2019-05-05T01:24:28.567Z,2.02
2019-05-05T01:26:55.169Z,2.05
2019-05-05T01:29:21.437Z,2.09
2019-05-05T01:31:47.463Z,2.11
2019-05-05T01:34:15.084Z,2.11
2019-05-05T01:36:42.569Z,2.09
2019-05-05T01:39:09.927Z,2.05
2019-05-05T01:41:36.048Z,2.03
2019-05-05T01:44:02.379Z,2.01
2019-05-05T01:46:28.401Z,1.95
2019-05-05T01:48:54.983Z,1.94
2019-05-05T01:51:21.163Z,1.90
2019-05-05T01:53:47.290Z,1.85
2019-05-05T01:56:15.363Z,1.84
2019-05-05T01:58:41.790Z,1.83
2019-05-05T02:01:07.817Z,1.86
2019-05-05T02:03:34.973Z,1.88
2019-05-05T02:06:01.498Z,1.96
2019-05-05T02:08:27.727Z,1.99
2019-05-05T02:10:54.807Z,1.97
2019-05-05T02:13:21.340Z,1.99
2019-05-05T02:15:47.332Z,1.95
2019-05-05T02:18:14.932Z,1.95
2019-05-05T02:20:45.052Z,1.97
2019-05-05T02:23:11.435Z,1.91
2019-05-05T02:25:37.665Z,1.86
2019-05-05T02:28:04.491Z,1.82
2019-05-05T02:30:30.840Z,1.81
2019-05-05T02:32:56.965Z,1.78
2019-05-05T02:35:25.533Z,1.79
2019-05-05T02:37:51.063Z,1.75
2019-05-05T02:40:18.104Z,1.73
2019-05-05T02:42:45.863Z,1.74
2019-05-05T02:45:25.054Z,1.69
2019-05-05T02:47:54.727Z,1.76
2019-05-05T02:50:21.241Z,1.81
2019-05-05T02:52:48.079Z,1.78
2019-05-05T02:55:15.328Z,1.86
2019-05-05T02:57:43.823Z,1.97
2019-05-05T03:00:10.243Z,2.01
2019-05-05T03:02:36.691Z,2.10
2019-05-05T03:05:04.314Z,2.08
2019-05-05T03:07:34.346Z,2.12
2019-05-05T03:10:00.793Z,2.16
2019-05-05T03:12:29.562Z,2.24
2019-05-05T03:14:57.230Z,1.20
2019-05-05T03:17:23.691Z,2.22
2019-05-05T03:19:50.814Z,2.27
2019-05-05T03:22:17.857Z,2.27
2019-05-05T03:24:45.008Z,2.25
2019-05-05T03:27:11.141Z,2.32
2019-05-05T03:29:38.691Z,2.39
2019-05-05T03:32:05.875Z,2.40
2019-05-05T03:34:34.323Z,2.42
2019-05-05T03:37:00.738Z,2.40
2019-05-05T03:39:27.185Z,2.40
2019-05-05T03:41:54.290Z,2.35
2019-05-05T03:44:20.765Z,2.02
2019-05-05T03:46:47.456Z,1.75
2019-05-05T03:49:14.249Z,1.61
2019-05-05T03:51:40.575Z,1.60
2019-05-05T03:54:06.801Z,1.69
2019-05-05T03:56:34.741Z,1.69
2019-05-05T03:59:01.346Z,1.70
2019-05-05T04:01:35.207Z,1.57
2019-05-05T04:04:03.341Z,1.63
2019-05-05T04:06:29.168Z,1.47
2019-05-05T04:08:55.428Z,1.41
2019-05-05T04:11:23.590Z,1.59
2019-05-05T04:13:49.724Z,1.72
2019-05-05T04:16:15.818Z,1.80
2019-05-05T04:18:43.557Z,1.85
2019-05-05T04:21:09.739Z,1.91
2019-05-05T04:23:35.862Z,1.86
2019-05-05T04:26:03.762Z,1.73
2019-05-05T04:28:29.902Z,1.63
2019-05-05T04:30:55.860Z,1.63
2019-05-05T04:33:23.653Z,1.73
2019-05-05T04:35:49.787Z,1.43
2019-05-05T04:38:15.785Z,2.10
2019-05-05T04:40:43.559Z,2.24
2019-05-05T04:43:09.674Z,2.37
2019-05-05T04:45:35.678Z,2.52
2019-05-05T04:48:04.201Z,2.62
2019-05-05T04:50:30.219Z,2.72
2019-05-05T04:52:56.330Z,2.80
2019-05-05T04:55:24.351Z,2.95
2019-05-05T04:57:50.418Z,3.12
2019-05-05T05:00:16.852Z,3.32
2019-05-05T05:02:43.620Z,3.56
2019-05-05T05:05:09.922Z,3.83
2019-05-05T05:07:35.944Z,3.91
2019-05-05T05:10:04.630Z,3.94
2019-05-05T05:12:30.648Z,3.96
2019-05-05T05:14:56.673Z,4.00
2019-05-05T05:17:24.720Z,3.96
2019-05-05T05:19:50.662Z,3.93
2019-05-05T05:22:16.684Z,4.02
2019-05-05T05:24:44.667Z,4.09
2019-05-05T05:27:10.984Z,4.32
2019-05-05T05:29:37.011Z,4.48
2019-05-05T05:32:04.222Z,4.66
2019-05-05T05:34:30.388Z,4.71
2019-05-05T05:36:56.505Z,4.77
2019-05-05T05:39:24.361Z,4.71
2019-05-05T05:41:50.494Z,4.74
2019-05-05T05:44:16.520Z,4.86
2019-05-05T05:46:43.869Z,4.89
2019-05-05T05:49:10.408Z,4.96
2019-05-05T05:51:36.634Z,5.11
2019-05-05T05:54:03.784Z,5.25
2019-05-05T05:56:29.912Z,5.32
2019-05-05T05:58:55.931Z,5.47
2019-05-05T06:01:23.928Z,5.52
2019-05-05T06:03:50.022Z,5.61
2019-05-05T06:06:16.044Z,5.67
2019-05-05T06:08:43.964Z,5.71
2019-05-05T06:11:10.036Z,5.74
2019-05-05T06:13:36.161Z,5.86
2019-05-05T06:16:04.263Z,6.59
2019-05-05T06:18:30.666Z,8.25
2019-05-05T06:20:56.789Z,9.78
2019-05-05T06:23:24.018Z,10.99
2019-05-05T06:25:51.499Z,11.62
2019-05-05T06:28:17.596Z,11.82
2019-05-05T06:30:44.272Z,12.26
2019-05-05T06:33:10.689Z,12.58
2019-05-05T06:35:37.955Z,12.96
2019-05-05T06:38:04.724Z,11.58
2019-05-05T06:40:31.123Z,13.62
2019-05-05T06:42:57.567Z,13.66
2019-05-05T06:45:23.968Z,13.93
2019-05-05T06:47:50.037Z,13.97
2019-05-05T06:50:16.226Z,14.06
2019-05-05T06:52:45.182Z,14.16
2019-05-05T06:55:10.320Z,13.75
2019-05-05T06:57:36.388Z,13.52
2019-05-05T07:00:04.412Z,13.06
2019-05-05T07:02:30.536Z,12.68
2019-05-05T07:04:56.661Z,12.52
2019-05-05T07:07:23.607Z,12.63
2019-05-05T07:09:49.787Z,12.48
2019-05-05T07:12:15.863Z,12.17
2019-05-05T07:14:41.879Z,12.37
2019-05-05T07:17:07.833Z,12.17
2019-05-05T07:19:34.471Z,12.48
2019-05-05T07:22:01.176Z,12.50
2019-05-05T07:24:27.173Z,12.66
2019-05-05T07:26:54.217Z,12.65
2019-05-05T07:29:20.526Z,12.63
2019-05-05T07:31:46.597Z,12.36
2019-05-05T07:34:13.689Z,12.22
2019-05-05T07:36:41.098Z,12.49
2019-05-05T07:39:07.327Z,12.50
2019-05-05T07:41:34.130Z,11.95
2019-05-05T07:44:00.708Z,12.11
2019-05-05T07:46:26.933Z,11.86
2019-05-05T07:48:54.475Z,11.12
2019-05-05T07:51:20.715Z,10.85
2019-05-05T07:53:46.839Z,10.73
2019-05-05T07:56:14.540Z,10.89
2019-05-05T07:58:40.834Z,10.99
2019-05-05T08:01:06.958Z,10.62
2019-05-05T08:03:33.864Z,10.60
2019-05-05T08:06:00.135Z,11.10
2019-05-05T08:08:26.151Z,11.32
2019-05-05T08:10:54.203Z,11.39
2019-05-05T08:13:20.556Z,11.30
2019-05-05T08:15:56.258Z,11.56
2019-05-05T08:18:14.848Z,11.85
2019-05-05T08:20:40.885Z,11.80
2019-05-05T08:23:08.326Z,11.55
2019-05-05T08:25:39.986Z,11.58
2019-05-05T08:28:04.343Z,11.21
2019-05-05T08:30:30.715Z,11.15
2019-05-05T08:32:56.718Z,11.50
2019-05-05T08:35:23.778Z,11.74
2019-05-05T08:37:50.093Z,11.87
2019-05-05T08:40:17.550Z,12.04
2019-05-05T08:42:44.824Z,11.64
2019-05-05T08:45:11.233Z,11.48
2019-05-05T08:47:39.692Z,12.04
2019-05-05T08:50:06.660Z,11.94
2019-05-05T08:52:34.297Z,11.19
2019-05-05T08:55:00.357Z,10.56
2019-05-05T08:57:26.468Z,11.33
2019-05-05T08:59:54.491Z,11.54
2019-05-05T09:02:20.560Z,11.91
2019-05-05T09:04:47.708Z,12.10
2019-05-05T09:07:13.916Z,12.55
2019-05-05T09:09:40.065Z,12.79
2019-05-05T09:12:06.406Z,12.46
2019-05-05T09:14:34.438Z,12.06
2019-05-05T09:17:00.588Z,11.28
2019-05-05T09:19:26.720Z,11.18
2019-05-05T09:21:54.148Z,11.56
2019-05-05T09:24:20.806Z,11.84
2019-05-05T09:26:47.238Z,12.22
2019-05-05T09:29:13.800Z,12.31
2019-05-05T09:31:39.998Z,12.37
2019-05-05T09:34:06.227Z,12.03
2019-05-05T09:36:34.758Z,11.67
2019-05-05T09:39:00.830Z,11.47
2019-05-05T09:41:26.958Z,11.26
2019-05-05T09:43:53.937Z,11.27
2019-05-05T09:46:20.127Z,10.92
2019-05-05T09:48:46.089Z,12.12
2019-05-05T09:51:13.620Z,12.71
2019-05-05T09:53:39.833Z,12.73
2019-05-05T09:56:06.177Z,12.59
2019-05-05T09:58:34.580Z,13.01
2019-05-05T10:01:00.564Z,12.24
2019-05-05T10:03:26.690Z,12.06
2019-05-05T10:05:54.079Z,12.07
2019-05-05T10:08:20.268Z,11.92
2019-05-05T10:10:46.501Z,12.00
2019-05-05T10:13:14.938Z,12.13
2019-05-05T10:15:41.102Z,12.60
2019-05-05T10:18:07.125Z,12.74
2019-05-05T10:20:34.363Z,12.58
2019-05-05T10:23:00.506Z,12.53
2019-05-05T10:25:26.525Z,12.44
2019-05-05T10:27:53.972Z,12.28
2019-05-05T10:30:20.310Z,12.14
2019-05-05T10:32:46.447Z,11.95
2019-05-05T10:35:14.327Z,11.85
2019-05-05T10:37:40.639Z,11.91
2019-05-05T10:40:06.881Z,11.60
2019-05-05T10:42:33.647Z,11.34
2019-05-05T10:44:59.930Z,10.94
2019-05-05T10:47:25.956Z,11.82
2019-05-05T10:49:54.372Z,11.82
2019-05-05T10:52:20.156Z,10.99
2019-05-05T10:54:46.267Z,11.82
2019-05-05T10:57:14.407Z,11.97
2019-05-05T10:59:43.416Z,12.00
2019-05-05T11:02:09.661Z,11.86
2019-05-05T11:04:35.810Z,11.80
2019-05-05T11:07:04.160Z,11.71
2019-05-05T11:09:30.327Z,11.50
2019-05-05T11:11:56.312Z,11.49
2019-05-05T11:14:22.437Z,11.61
2019-05-05T11:16:49.074Z,12.07
2019-05-05T11:19:15.511Z,12.09
2019-05-05T11:21:43.556Z,12.08
2019-05-05T11:24:09.804Z,12.47
2019-05-05T11:26:36.031Z,12.45
2019-05-05T11:29:04.128Z,12.32
2019-05-05T11:31:30.226Z,12.34
2019-05-05T11:33:56.251Z,12.34
2019-05-05T11:36:23.984Z,12.29
2019-05-05T11:38:50.137Z,12.16
2019-05-05T11:41:16.262Z,12.24
2019-05-05T11:43:42.386Z,12.25
2019-05-05T11:46:08.721Z,12.15
2019-05-05T11:48:34.740Z,12.49
2019-05-05T11:51:00.863Z,12.55
2019-05-05T11:53:26.890Z,12.73
2019-05-05T11:55:54.980Z,12.81
2019-05-05T11:58:22.006Z,12.81
2019-05-05T12:00:48.027Z,12.36
2019-05-05T12:03:14.530Z,12.38
2019-05-05T12:05:40.891Z,12.57
2019-05-05T12:08:07.021Z,12.38
2019-05-05T12:10:34.419Z,12.40
2019-05-05T12:13:00.904Z,12.41
2019-05-05T12:15:27.645Z,12.50
2019-05-05T12:17:54.541Z,12.63
2019-05-05T12:20:36.073Z,12.79
2019-05-05T12:23:04.705Z,12.83
2019-05-05T12:25:31.088Z,12.75
2019-05-05T12:27:57.217Z,12.63
2019-05-05T12:30:24.486Z,12.58
2019-05-05T12:32:50.590Z,12.56
2019-05-05T12:35:16.712Z,12.57
2019-05-05T12:37:44.538Z,12.79
2019-05-05T12:40:10.910Z,13.04
2019-05-05T12:42:37.240Z,12.71
2019-05-05T12:45:05.515Z,12.16
2019-05-05T12:47:34.245Z,12.20
2019-05-05T12:50:00.631Z,12.38
2019-05-05T12:52:27.988Z,12.54
2019-05-05T12:54:54.636Z,12.41
2019-05-05T12:57:20.954Z,12.35
2019-05-05T12:59:47.179Z,12.40
2019-05-05T13:02:14.264Z,12.29
2019-05-05T13:04:40.456Z,12.33
2019-05-05T13:07:08.291Z,12.38
2019-05-05T13:09:34.956Z,12.39
2019-05-05T13:12:01.493Z,12.34
2019-05-05T13:14:27.720Z,12.42
2019-05-05T13:16:56.009Z,12.43
2019-05-05T13:19:24.051Z,12.17
2019-05-05T13:21:50.314Z,12.25
2019-05-05T13:24:16.417Z,12.33
2019-05-05T13:26:43.566Z,12.57
2019-05-05T13:29:10.714Z,12.82
2019-05-05T13:31:36.942Z,13.13
2019-05-05T13:34:04.428Z,13.06
2019-05-05T13:36:30.841Z,13.26
2019-05-05T13:38:56.854Z,13.27
2019-05-05T13:41:23.081Z,12.98
2019-05-05T13:43:50.333Z,12.76
2019-05-05T13:46:16.456Z,12.84
2019-05-05T13:48:44.422Z,12.75
2019-05-05T13:51:14.637Z,12.73
2019-05-05T13:53:40.978Z,12.51
2019-05-05T13:56:11.929Z,12.61
2019-05-05T13:58:35.377Z,12.53
2019-05-05T14:01:03.760Z,12.53
2019-05-05T14:03:30.176Z,12.62
2019-05-05T14:05:57.444Z,12.47
2019-05-05T14:08:23.886Z,12.63
2019-05-05T14:10:50.201Z,12.61
2019-05-05T14:13:16.386Z,12.38
2019-05-05T14:15:44.076Z,12.29
2019-05-05T14:18:10.521Z,12.03
2019-05-05T14:20:36.751Z,12.10
2019-05-05T14:23:04.222Z,12.12
2019-05-05T14:25:30.227Z,12.03
2019-05-05T14:27:56.454Z,12.06
2019-05-05T14:30:23.649Z,12.24
2019-05-05T14:32:49.889Z,12.20
2019-05-05T14:35:22.103Z,12.16
2019-05-05T14:37:55.399Z,12.16
2019-05-05T14:40:21.516Z,12.11
2019-05-05T14:42:47.642Z,12.20
2019-05-05T14:45:15.376Z,12.21
2019-05-05T14:47:44.008Z,12.26
2019-05-05T14:50:10.532Z,12.45
2019-05-05T14:52:36.752Z,12.25
2019-05-05T14:55:04.926Z,12.29
2019-05-05T14:57:31.255Z,12.46
2019-05-05T14:59:57.381Z,12.53
2019-05-05T15:02:24.532Z,12.36
2019-05-05T15:04:50.758Z,12.51
2019-05-05T15:07:16.881Z,12.41
2019-05-05T15:09:44.132Z,12.31
2019-05-05T15:12:11.178Z,12.26
2019-05-05T15:14:37.200Z,12.13
2019-05-05T15:17:03.732Z,12.09
2019-05-05T15:19:33.971Z,12.03
2019-05-05T15:22:00.186Z,11.87
2019-05-05T15:24:26.201Z,12.03
2019-05-05T15:26:54.969Z,11.71
2019-05-05T15:29:22.160Z,11.66
2019-05-05T15:31:48.126Z,11.89
2019-05-05T15:34:14.186Z,12.05
2019-05-05T15:36:41.441Z,11.82
2019-05-05T15:39:08.138Z,11.92
2019-05-05T15:41:34.306Z,12.06
2019-05-05T15:44:03.749Z,12.13
2019-05-05T15:46:30.341Z,12.14
2019-05-05T15:48:56.369Z,12.36
2019-05-05T15:51:23.685Z,12.25
2019-05-05T15:53:50.051Z,12.09
2019-05-05T15:56:16.073Z,11.47
2019-05-05T15:58:43.506Z,10.95
2019-05-05T16:01:09.898Z,11.30
2019-05-05T16:03:36.190Z,11.29
2019-05-05T16:06:03.775Z,11.15
2019-05-05T16:08:29.970Z,11.37
2019-05-05T16:10:56.099Z,11.63
2019-05-05T16:13:22.222Z,11.60
2019-05-05T16:15:48.449Z,11.60
2019-05-05T16:18:14.678Z,11.60
2019-05-05T16:20:40.808Z,11.70
2019-05-05T16:23:06.984Z,11.51
2019-05-05T16:25:33.055Z,11.35
2019-05-05T16:27:59.386Z,11.24
2019-05-05T16:30:25.814Z,11.27
2019-05-05T16:32:54.979Z,11.59
2019-05-05T16:35:20.116Z,11.30
2019-05-05T16:37:46.386Z,11.08
2019-05-05T16:40:14.412Z,11.14
2019-05-05T16:42:41.150Z,11.35
2019-05-05T16:45:07.891Z,11.60
2019-05-05T16:47:34.627Z,11.47
2019-05-05T16:50:00.752Z,11.17
2019-05-05T16:52:26.744Z,11.06
2019-05-05T16:54:53.342Z,10.99
2019-05-05T16:57:33.191Z,11.04
2019-05-05T16:59:48.838Z,10.75
2019-05-05T17:02:15.065Z,10.96
2019-05-05T17:04:43.251Z,11.22
2019-05-05T17:07:09.371Z,11.33
2019-05-05T17:09:35.487Z,11.26
2019-05-05T17:12:03.342Z,11.22
2019-05-05T17:14:29.487Z,11.11
2019-05-05T17:16:55.706Z,11.00
2019-05-05T17:19:21.967Z,11.04
2019-05-05T17:21:48.230Z,11.10
2019-05-05T17:24:14.552Z,10.96
2019-05-05T17:26:40.826Z,10.74
2019-05-05T17:29:07.052Z,10.85
2019-05-05T17:31:33.995Z,10.82
2019-05-05T17:34:00.322Z,10.83
2019-05-05T17:36:27.573Z,10.28
2019-05-05T17:38:54.415Z,10.59
2019-05-05T17:41:20.541Z,10.55
2019-05-05T17:43:46.569Z,10.52
2019-05-05T17:46:13.490Z,10.41
2019-05-05T17:48:39.632Z,10.31
2019-05-05T17:51:05.755Z,10.23
2019-05-05T17:53:31.903Z,10.11
2019-05-05T17:55:58.010Z,10.00
2019-05-05T17:58:24.728Z,9.90
2019-05-05T18:00:54.213Z,9.86
2019-05-05T18:03:20.169Z,9.77
2019-05-05T18:05:46.366Z,9.65
2019-05-05T18:08:13.829Z,9.54
2019-05-05T18:10:39.968Z,9.46
2019-05-05T18:13:06.006Z,9.36
2019-05-05T18:15:34.001Z,9.27
2019-05-05T18:18:00.094Z,9.12
2019-05-05T18:20:27.143Z,8.98
2019-05-05T18:22:53.613Z,8.92
2019-05-05T18:25:20.028Z,8.86
2019-05-05T18:27:46.134Z,8.80
2019-05-05T18:30:13.079Z,8.77
2019-05-05T18:32:39.409Z,8.71
2019-05-05T18:35:06.758Z,8.70
2019-05-05T18:37:33.967Z,8.67
2019-05-05T18:40:00.174Z,8.64
2019-05-05T18:42:26.157Z,7.78
2019-05-05T18:44:54.022Z,8.68
2019-05-05T18:47:20.274Z,8.72
2019-05-05T18:49:46.685Z,8.74
2019-05-05T18:52:13.855Z,8.80
2019-05-05T18:54:40.569Z,8.83
2019-05-05T18:57:08.031Z,8.92
2019-05-05T18:59:34.357Z,8.92
2019-05-05T19:02:00.860Z,8.90
2019-05-05T19:04:27.225Z,8.92
2019-05-05T19:06:54.568Z,8.80
2019-05-05T19:09:20.700Z,8.80
2019-05-05T19:11:46.818Z,8.77
2019-05-05T19:14:14.315Z,8.72
2019-05-05T19:16:40.611Z,8.65
2019-05-05T19:19:06.777Z,8.69
2019-05-05T19:21:34.014Z,8.60
2019-05-05T19:24:00.932Z,8.52
2019-05-05T19:26:27.058Z,8.55
2019-05-05T19:28:54.740Z,8.51
2019-05-05T19:31:21.009Z,8.50
2019-05-05T19:33:47.174Z,8.50
2019-05-05T19:36:13.400Z,8.46
2019-05-05T19:38:39.525Z,8.46
2019-05-05T19:41:06.879Z,8.37
2019-05-05T19:43:34.017Z,8.45
2019-05-05T19:46:01.176Z,8.34
2019-05-05T19:48:27.423Z,8.24
2019-05-05T19:50:54.191Z,8.16
2019-05-05T19:53:20.678Z,8.15
2019-05-05T19:55:46.802Z,8.14
2019-05-05T19:58:14.045Z,8.09
2019-05-05T20:00:40.080Z,8.02
2019-05-05T20:03:06.341Z,7.92
2019-05-05T20:05:34.106Z,7.81
2019-05-05T20:08:00.310Z,7.78
2019-05-05T20:10:26.310Z,7.67
2019-05-05T20:12:54.014Z,7.60
2019-05-05T20:15:20.192Z,7.51
2019-05-05T20:17:46.174Z,7.43
2019-05-05T20:20:13.851Z,7.34
2019-05-05T20:22:39.927Z,7.20
2019-05-05T20:25:06.319Z,6.31
2019-05-05T20:27:34.229Z,6.93
2019-05-05T20:30:00.206Z,6.85
2019-05-05T20:32:26.763Z,6.86
2019-05-05T20:34:54.163Z,6.85
2019-05-05T20:37:23.455Z,6.84
2019-05-05T20:39:49.305Z,6.85
2019-05-05T20:42:15.394Z,6.90
2019-05-05T20:44:43.581Z,6.92
2019-05-05T20:47:09.691Z,6.97
2019-05-05T20:49:35.803Z,7.04
2019-05-05T20:52:03.728Z,7.12
2019-05-05T20:54:31.020Z,7.27
2019-05-05T20:57:00.580Z,7.31
2019-05-05T21:02:25.971Z,7.32
2019-05-05T21:04:54.091Z,7.30
2019-05-05T21:07:23.520Z,7.32
2019-05-05T21:09:49.665Z,7.36
2019-05-05T21:12:15.747Z,7.35
2019-05-05T21:14:44.458Z,7.30
2019-05-05T21:17:09.757Z,7.27
2019-05-05T21:19:35.892Z,7.22
2019-05-05T21:22:04.080Z,7.20
2019-05-05T21:24:29.992Z,7.21
2019-05-05T21:26:55.979Z,7.23
2019-05-05T21:29:23.727Z,7.19
2019-05-05T21:31:49.800Z,7.17
2019-05-05T21:34:15.793Z,7.19
2019-05-05T21:36:41.951Z,7.22
2019-05-05T21:39:08.347Z,7.25
2019-05-05T21:41:34.695Z,7.25
2019-05-05T21:44:00.939Z,7.26
2019-05-05T21:46:26.890Z,7.28
2019-05-05T21:48:54.366Z,7.25
2019-05-05T21:51:20.556Z,7.18
2019-05-05T21:53:46.558Z,7.09
2019-05-05T21:56:13.866Z,7.13
2019-05-05T21:58:39.923Z,7.18
2019-05-05T22:01:07.556Z,7.17
2019-05-05T22:03:34.866Z,7.19
2019-05-05T22:06:01.252Z,7.18
2019-05-05T22:08:27.240Z,7.17
2019-05-05T22:10:54.328Z,7.19
2019-05-05T22:13:20.561Z,7.21
2019-05-05T22:15:46.613Z,7.22
2019-05-05T22:18:14.469Z,7.21
2019-05-05T22:20:40.940Z,7.20
2019-05-05T22:23:07.025Z,7.21
2019-05-05T22:25:34.163Z,7.18
2019-05-05T22:28:00.384Z,7.17
2019-05-05T22:30:26.392Z,7.16
2019-05-05T22:32:52.389Z,7.11
2019-05-05T22:35:19.138Z,7.08
2019-05-05T22:37:45.576Z,7.08
2019-05-05T22:40:16.042Z,7.05
2019-05-05T22:42:43.719Z,6.98
2019-05-05T22:45:09.945Z,6.96
2019-05-05T22:47:35.896Z,6.93
2019-05-05T22:50:04.492Z,6.86
2019-05-05T22:52:30.727Z,6.83
2019-05-05T22:54:56.729Z,6.72
2019-05-05T22:57:24.619Z,6.62
2019-05-05T22:59:50.572Z,6.55
2019-05-05T23:02:16.969Z,6.36
2019-05-05T23:04:43.867Z,6.20
2019-05-05T23:07:09.934Z,6.08
2019-05-05T23:09:35.928Z,6.06
2019-05-05T23:12:04.070Z,6.19
2019-05-05T23:14:29.784Z,6.09
2019-05-05T23:16:58.095Z,5.99
2019-05-05T23:19:25.734Z,6.21
2019-05-05T23:21:51.842Z,6.36
2019-05-05T23:24:18.040Z,6.40
2019-05-05T23:26:43.999Z,6.44
2019-05-05T23:29:10.295Z,6.49
2019-05-05T23:31:36.276Z,6.52
2019-05-05T23:34:04.009Z,6.51
2019-05-05T23:36:30.298Z,6.42
2019-05-05T23:38:57.302Z,6.41
2019-05-05T23:41:23.919Z,6.44
2019-05-05T23:43:51.160Z,6.45
2019-05-05T23:46:17.318Z,6.38
2019-05-05T23:48:43.425Z,6.26
2019-05-05T23:51:09.376Z,6.33
2019-05-05T23:53:35.489Z,6.41
2019-05-05T23:56:01.431Z,6.40
2019-05-05T23:58:27.438Z,6.39
